地図

経路データ

SID SEASON NUMBER BASIN SUBBASIN NAME ISO_TIME NATURE LAT LON WMO_WIND WMO_PRES WMO_AGENCY TRACK_TYPE DIST2LAND LANDFALL IFLAG USA_AGENCY USA_ATCF_ID USA_LAT USA_LON USA_RECORD USA_STATUS USA_WIND USA_PRES USA_SSHS USA_R34_NE USA_R34_SE USA_R34_SW USA_R34_NW USA_R50_NE USA_R50_SE USA_R50_SW USA_R50_NW USA_R64_NE USA_R64_SE USA_R64_SW USA_R64_NW USA_POCI USA_ROCI USA_RMW USA_EYE TOKYO_LAT TOKYO_LON TOKYO_GRADE TOKYO_WIND TOKYO_PRES TOKYO_R50_DIR TOKYO_R50_LONG TOKYO_R50_SHORT TOKYO_R30_DIR TOKYO_R30_LONG TOKYO_R30_SHORT TOKYO_LAND CMA_LAT CMA_LON CMA_CAT CMA_WIND CMA_PRES HKO_LAT HKO_LON HKO_CAT HKO_WIND HKO_PRES NEWDELHI_LAT NEWDELHI_LON NEWDELHI_GRADE NEWDELHI_WIND NEWDELHI_PRES NEWDELHI_CI NEWDELHI_DP NEWDELHI_POCI REUNION_LAT REUNION_LON REUNION_TYPE REUNION_WIND REUNION_PRES REUNION_TNUM REUNION_CI REUNION_RMW REUNION_R34_NE REUNION_R34_SE REUNION_R34_SW REUNION_R34_NW REUNION_R50_NE REUNION_R50_SE REUNION_R50_SW REUNION_R50_NW REUNION_R64_NE REUNION_R64_SE REUNION_R64_SW REUNION_R64_NW BOM_LAT BOM_LON BOM_TYPE BOM_WIND BOM_PRES BOM_TNUM BOM_CI BOM_RMW BOM_R34_NE BOM_R34_SE BOM_R34_SW BOM_R34_NW BOM_R50_NE BOM_R50_SE BOM_R50_SW BOM_R50_NW BOM_R64_NE BOM_R64_SE BOM_R64_SW BOM_R64_NW BOM_ROCI BOM_POCI BOM_EYE BOM_POS_METHOD BOM_PRES_METHOD NADI_LAT NADI_LON NADI_CAT NADI_WIND NADI_PRES WELLINGTON_LAT WELLINGTON_LON WELLINGTON_WIND WELLINGTON_PRES DS824_LAT DS824_LON DS824_STAGE DS824_WIND DS824_PRES TD9636_LAT TD9636_LON TD9636_STAGE TD9636_WIND TD9636_PRES TD9635_LAT TD9635_LON TD9635_WIND TD9635_PRES TD9635_ROCI NEUMANN_LAT NEUMANN_LON NEUMANN_CLASS NEUMANN_WIND NEUMANN_PRES MLC_LAT MLC_LON MLC_CLASS MLC_WIND MLC_PRES USA_GUST BOM_GUST BOM_GUST_PER REUNION_GUST REUNION_GUST_PER USA_SEAHGT USA_SEARAD_NE USA_SEARAD_SE USA_SEARAD_SW USA_SEARAD_NW STORM_SPEED STORM_DIR
1942220N25147 1942 37 WP MM NOT_NAMED 1942-08-08 09:00:00 NR 25.4000 146.700 main 1244 1195 __________O___ -1 25.4000 146.700 4 10 310
1942220N25147 1942 37 WP MM NOT_NAMED 1942-08-08 12:00:00 NR 25.7366 146.263 main 1195 1141 __________P___ -1 25.7366 146.263 4 10 310
1942220N25147 1942 37 WP MM NOT_NAMED 1942-08-08 15:00:00 NR 26.0681 145.820 main 1131 1083 __________P___ -1 26.0681 145.820 4 10 309
1942220N25147 1942 37 WP MM NOT_NAMED 1942-08-08 18:00:00 NR 26.3906 145.366 main 1083 1031 __________P___ -1 26.3906 145.366 4 10 308
1942220N25147 1942 37 WP MM NOT_NAMED 1942-08-08 21:00:00 NR 26.7000 144.900 main 1031 979 __________O___ -1 26.7000 144.900 4 10 306
1942220N25147 1942 37 WP MM NOT_NAMED 1942-08-09 00:00:00 NR 26.9967 144.421 main 979 932 __________P___ -1 26.9967 144.421 4 10 305
1942220N25147 1942 37 WP MM NOT_NAMED 1942-08-09 03:00:00 NR 27.2978 143.946 main 929 882 __________P___ -1 27.2978 143.946 4 10 307
1942220N25147 1942 37 WP MM NOT_NAMED 1942-08-09 06:00:00 NR 27.6249 143.499 main 882 827 __________P___ -1 27.6249 143.499 4 10 313
1942220N25147 1942 37 WP MM NOT_NAMED 1942-08-09 09:00:00 NR 28.0000 143.100 main 827 782 __________O___ -1 28.0000 143.100 4 11 314
1942220N25147 1942 37 WP MM NOT_NAMED 1942-08-09 12:00:00 NR 28.3517 142.631 main 768 724 __________P___ -1 28.3517 142.631 4 11 315
1942220N25147 1942 37 WP MM NOT_NAMED 1942-08-09 15:00:00 NR 28.7663 142.232 main 714 655 __________P___ -1 28.7663 142.232 4 11 329
1942220N25147 1942 37 WP MM NOT_NAMED 1942-08-09 18:00:00 NR 29.2976 141.991 main 655 580 __________P___ -1 29.2976 141.991 4 13 351
1942220N25147 1942 37 WP MM NOT_NAMED 1942-08-09 21:00:00 NR 30.0000 142.000 main 580 498 __________O___ -1 30.0000 142.000 4 17 10
1942220N25147 1942 37 WP MM NOT_NAMED 1942-08-10 00:00:00 NR 31.0051 142.341 main 488 415 __________P___ -1 31.0051 142.341 4 23 21
1942220N25147 1942 37 WP MM NOT_NAMED 1942-08-10 03:00:00 NR 32.1637 142.947 main 406 368 __________P___ -1 32.1637 142.947 4 26 27
1942220N25147 1942 37 WP MM NOT_NAMED 1942-08-10 06:00:00 NR 33.3401 143.732 main 369 355 __________P___ -1 33.3401 143.732 4 26 32
1942220N25147 1942 37 WP MM NOT_NAMED 1942-08-10 09:00:00 NR 34.4000 144.600 main 365 361 __________O___ -1 34.4000 144.600 4 23 37
1942220N25147 1942 37 WP MM NOT_NAMED 1942-08-10 12:00:00 NR 35.1937 145.401 main 410 410 __________P___ -1 35.1937 145.401 4 20 43
1942220N25147 1942 37 WP MM NOT_NAMED 1942-08-10 15:00:00 NR 35.8520 146.252 main 486 486 __________P___ -1 35.8520 146.252 4 19 49
1942220N25147 1942 37 WP MM NOT_NAMED 1942-08-10 18:00:00 NR 36.4092 147.128 main 537 537 __________P___ -1 36.4092 147.128 4 18 53
1942220N25147 1942 37 WP MM NOT_NAMED 1942-08-10 21:00:00 NR 36.9000 148.000 main 589 589 __________O___ -1 36.9000 148.000 4 17 54
1942220N25147 1942 37 WP MM NOT_NAMED 1942-08-11 00:00:00 NR 37.3909 148.806 main 626 626 __________P___ -1 37.3909 148.806 4 16 54
1942220N25147 1942 37 WP MM NOT_NAMED 1942-08-11 03:00:00 NR 37.8270 149.606 main 676 676 __________P___ -1 37.8270 149.606 4 15 57
1942220N25147 1942 37 WP MM NOT_NAMED 1942-08-11 06:00:00 NR 38.2248 150.427 main 691 687 __________P___ -1 38.2248 150.427 4 15 60
1942220N25147 1942 37 WP MM NOT_NAMED 1942-08-11 09:00:00 NR 38.6000 151.300 main 705 705 __________O___ -1 38.6000 151.300 4 16 63
1942220N25147 1942 37 WP MM NOT_NAMED 1942-08-11 12:00:00 NR 38.9646 152.246 main 728 728 __________P___ -1 38.9646 152.246 4 17 65
1942220N25147 1942 37 WP MM NOT_NAMED 1942-08-11 15:00:00 NR 39.3201 153.257 main 759 752 __________P___ -1 39.3201 153.257 4 17 66
1942220N25147 1942 37 WP MM NOT_NAMED 1942-08-11 18:00:00 NR 39.6653 154.314 main 755 755 __________P___ -1 39.6653 154.314 4 18 68
1942220N25147 1942 37 WP MM NOT_NAMED 1942-08-11 21:00:00 NR 40.0000 155.400 main 775 __________O___ -1 40.0000 155.400 4 18 68

デジタル台風データ・検索

IBTrACS Databaseについて

本データベースは、米国NOAAが公開する1842年以降の世界の熱帯低気圧のベストトラックデータアーカイブInternational Best Track Archive for Climate Stewardship (IBTrACS)を、ウェブで閲覧しやすい形式に変換したものです。

最終更新日:2021-10-21